Charleston, Kentucky
Current Conditions -  °F | °C
As of 12:15 AM on Monday 26 Jan 2015 (Local Time) from K2I0 Reporting Station
Overcast Overcast  
Wind Chill: 26°   Ceiling: 700
Heat Index: 36°   Visibility: 10mi
Dew Point: 35°   Wind: 18mph
Humidity: 95%   Direction: 350°N
Pressure: 29.83"   Gusts: 25mph
Location:  37.196°N, 87.6728°W
Report Text: K2I0 260615Z AUTO 35016G22KT 10SM OVC007 02/02 A2983 RMK AO2 T00240016
Loading
Personal Weather Stations






























Interactive Weather Map New forecast layout! Learn more

10-Day Weather Forecast

Advertisements
Track Severe Weather on mobile